Flight Track Log - Related Links

Times and Time Zones

All times are in EDT time to prevent confusion due to time zone crossing. See the EGF3721 flight status page for this flight to view local times or setup timezone preferences in your user account.

Time Position Orientation Groundspeed Altitude Reporting Facility
EDT Latitude Longitude Course Direction KTS MPH feet Rate Location/Type
Tue 05:09:02 PM 42.0167 -87.9667 253° West 179 206 2,300  Level Chicago TRACON
Tue 05:10:00 PM 41.9007 -88.1816 242° Southwest  Level FlightAware Approximate
Tue 05:10:02 PM 42.0667 -88.0167 323° Northwest 253 291 4,300  Level Chicago TRACON
Tue 05:11:00 PM 41.8792 -88.3270 242° Southwest  Level FlightAware Approximate
Tue 05:11:02 PM 42.1333 -88.0667 331° Northwest 271 312 6,400  Level Chicago TRACON
Tue 05:12:00 PM 41.8371 -88.4646 255° West  Level FlightAware Approximate
Tue 05:12:05 PM 42.1356 -88.1539 272° West 278 320 9,000  Level Chicago Center
Tue 05:13:00 PM 41.8058 -88.6083 254° West  Level FlightAware Approximate
Tue 05:13:07 PM 42.0922 -88.2731 244° Southwest 296 341 12,100  Level Chicago Center
Tue 05:14:00 PM 41.7787 -88.7304 253° West  Level FlightAware Approximate
Tue 05:14:09 PM 42.0597 -88.3747 247° West 299 344 15,000  Level Chicago Center
Tue 05:15:11 PM 42.0269 -88.4783 247° West 303 349 17,200 1,548 Climbing Chicago Center
Tue 05:16:13 PM 41.9897 -88.5956 247° West 336 387 18,200 1,258 Climbing Chicago Center
Tue 05:17:15 PM 41.9492 -88.7264 247° West 375 432 19,800 1,839 Climbing Chicago Center
Tue 05:18:17 PM 41.8972 -88.8858 246° West 391 450 22,000 1,790 Climbing Chicago Center
Tue 05:19:19 PM 41.8542 -89.0217 247° West 398 458 23,500 1,355 Climbing Chicago Center
Tue 05:20:21 PM 41.8089 -89.1619 247° West 411 473 24,800 1,258 Climbing Chicago Center
Tue 05:21:23 PM 41.7636 -89.3058 247° West 422 486 26,100 1,355 Climbing Chicago Center
Tue 05:22:25 PM 41.7075 -89.4800 247° West 428 493 27,600 1,248 Climbing Chicago Center
Tue 05:23:28 PM 41.6611 -89.6214 246° West 434 499 28,700 1,008 Climbing Chicago Center
Tue 05:24:30 PM 41.6122 -89.7697 246° West 435 501 29,700 968 Climbing Chicago Center
Tue 05:25:32 PM 41.5633 -89.9206 247° West 441 507 30,700 968 Climbing Chicago Center
Tue 05:26:34 PM 41.5133 -90.0711 246° West 445 512 31,700 1,065 Climbing Chicago Center
Tue 05:27:36 PM 41.4536 -90.2500 246° West 445 512 32,900 1,065 Climbing Chicago Center
Tue 05:28:38 PM 41.4047 -90.3992 246° West 443 510 33,900 532 Climbing Chicago Center
Tue 05:29:40 PM 41.3531 -90.5497 245° Southwest 446 513 34,000 48 Climbing Chicago Center
Tue 05:30:42 PM 41.2864 -90.6950 239° Southwest 453 521 34,000  Level Chicago Center
Tue 05:31:44 PM 41.2100 -90.8281 233° Southwest 453 521 34,000  Level Chicago Center
Tue 05:32:46 PM 41.1181 -90.9825 232° Southwest 447 514 34,000  Level Chicago Center
Tue 05:33:48 PM 41.0392 -91.1139 232° Southwest 455 524 34,000  Level Chicago Center
Tue 05:34:50 PM 40.9594 -91.2489 232° Southwest 465 535 34,000  Level Chicago Center
Tue 05:35:53 PM 40.8778 -91.3861 232° Southwest 467 537 34,000  Level Chicago Center
Tue 05:36:55 PM 40.7975 -91.5186 231° Southwest 466 536 34,000  Level Chicago Center
Tue 05:37:57 PM 40.7189 -91.6481 231° Southwest 458 527 34,000  Level Chicago Center
Tue 05:38:59 PM 40.6228 -91.8039 231° Southwest 459 528 34,000  Level Chicago Center
Tue 05:39:50 PM 40.5594 -91.9072 231° Southwest 458 527 34,000  Level Kansas City Center
Tue 05:40:52 PM 40.4803 -92.0361 231° Southwest 456 525 34,000  Level Kansas City Center
Tue 05:41:54 PM 40.4019 -92.1642 231° Southwest 455 524 34,000  Level Kansas City Center
Tue 05:42:56 PM 40.3231 -92.2911 231° Southwest 452 520 34,000  Level Kansas City Center
Tue 05:43:59 PM 40.2347 -92.4294 230° Southwest 448 516 34,000 -48 Level Kansas City Center
Tue 05:45:01 PM 40.1475 -92.5731 232° Southwest 450 518 33,900 -774 Descending Kansas City Center
Tue 05:46:03 PM 40.0906 -92.7114 242° Southwest 453 521 32,400 -1,790 Descending Kansas City Center
Tue 05:47:05 PM 40.0281 -92.8686 243° Southwest 456 525 30,200 -2,032 Descending Kansas City Center
Tue 05:48:07 PM 39.9708 -93.0142 243° Southwest 456 525 28,200 -1,935 Descending Kansas City Center
Tue 05:49:09 PM 39.9147 -93.1600 243° Southwest 454 522 26,200 -2,661 Descending Kansas City Center
Tue 05:50:11 PM 39.8597 -93.3006 243° Southwest 443 510 22,700 -3,726 Descending Kansas City Center
Tue 05:51:13 PM 39.7942 -93.4611 242° Southwest 425 489 18,500 -3,242 Descending Kansas City Center
Tue 05:52:15 PM 39.7419 -93.5919 243° Southwest 417 480 16,000 -2,129 Descending Kansas City Center
Tue 05:53:17 PM 39.6950 -93.7131 243° Southwest 379 436 14,100 -1,839 Descending Kansas City Center
Tue 05:54:19 PM 39.6450 -93.8414 243° Southwest 371 427 12,200 -1,065 Descending Kansas City Center
Tue 05:55:21 PM 39.5969 -93.9428 238° Southwest 330 380 11,900 -532 Descending Kansas City Center
Tue 05:56:23 PM 39.5697 -94.0489 252° West 278 320 11,100 -1,065 Descending Kansas City Center
Tue 05:57:25 PM 39.5528 -94.1464 257° West 288 331 9,700 -1,548 Descending Kansas City Center
Tue 05:58:27 PM 39.5331 -94.2544 257° West 277 319 7,900 -1,597 Descending Kansas City Center
Tue 05:59:29 PM 39.5156 -94.3458 256° West 274 315 6,400 -919 Descending Kansas City Center
Tue 06:00:31 PM 39.4969 -94.4500 257° West 267 307 6,000 -823 Descending Kansas City Center
Tue 06:01:33 PM 39.4789 -94.5392 255° West 267 307 4,700 -1,258 Descending Kansas City Center

Login

Don't have an account? Register now (free) for customized features, flight alerts, and more!